Placerville, Colorado
Current Conditions -  °F | °C
As of 1:55 PM on Thursday 20 Nov 2014 (Local Time) from KTEX Reporting Station
Overcast Overcast  
Wind Chill: 32°   Ceiling: 12000
Heat Index: 36°   Visibility: 10mi
Dew Point: 12°   Wind: 5mph
Humidity: 38%   Direction: 260°W
Pressure: 30.1"   Gusts: NA
Location:  38.02°N, 108.05°W
Report Text: KTEX 202055Z AUTO 26004KT 10SM SCT085 OVC120 02/M11 A3010 RMK AO2 T00221109
Loading
Personal Weather Stations






























Interactive Weather Map New forecast layout! Learn more

10-Day Weather Forecast

Advertisements
Track Severe Weather on mobile